Time;durP1;ratioP1;P1;durP2;ratioP2;P2;SDS_P1;SDS_P2;PMS_P1;PMS_P2;Temp;Humidity;BMP_temperature;BMP_pressure;BME280_temperature;BME280_humidity;BME280_pressure;Samples;Min_cycle;Max_cycle;Signal;HPM_P1;HPM_P2
2021/01/12 00:01:04;;;;;;;19.07;8.07;;;7.00;95.10;;;;;;4311807;33;20169;-62
2021/01/12 00:03:39;;;;;;;18.43;8.83;;;7.10;95.10;;;;;;4314117;33;20173;-63
2021/01/12 00:06:08;;;;;;;18.20;8.57;;;7.10;95.20;;;;;;4314185;33;20157;-67
2021/01/12 00:08:34;;;;;;;16.37;7.43;;;7.00;95.20;;;;;;4316167;33;20575;-66
2021/01/12 00:11:09;;;;;;;16.00;8.20;;;7.00;95.20;;;;;;4317501;33;20172;-63
2021/01/12 00:13:39;;;;;;;13.73;7.30;;;7.00;95.20;;;;;;4311514;33;20161;-64
2021/01/12 00:16:16;;;;;;;18.30;7.57;;;7.00;95.40;;;;;;4316569;33;20201;-65
2021/01/12 00:18:44;;;;;;;20.10;7.63;;;7.00;95.40;;;;;;4313559;33;20166;-63
2021/01/12 00:21:17;;;;;;;20.83;8.27;;;7.00;95.50;;;;;;4299107;33;20161;-64
2021/01/12 00:23:43;;;;;;;13.37;7.57;;;7.00;95.50;;;;;;4307662;33;20214;-66
2021/01/12 00:26:10;;;;;;;19.23;8.00;;;7.10;95.60;;;;;;4315701;33;20224;-64
2021/01/12 00:28:37;;;;;;;13.43;7.70;;;7.10;95.60;;;;;;4316871;33;20218;-63
2021/01/12 00:31:04;;;;;;;16.87;8.27;;;7.00;95.70;;;;;;4317042;33;20196;-65
2021/01/12 00:33:31;;;;;;;21.13;9.37;;;7.00;96.00;;;;;;4314978;33;20519;-65
2021/01/12 00:36:11;;;;;;;13.73;8.50;;;7.00;95.70;;;;;;4315710;33;20207;-63
2021/01/12 00:38:37;;;;;;;20.70;9.10;;;7.10;95.70;;;;;;4317459;33;20217;-62
2021/01/12 00:41:12;;;;;;;17.00;7.60;;;7.00;95.70;;;;;;4316792;33;20517;-63
2021/01/12 00:43:43;;;;;;;19.60;8.73;;;7.00;95.80;;;;;;4313306;33;20243;-62
2021/01/12 00:46:10;;;;;;;18.90;8.20;;;7.10;95.80;;;;;;4314846;33;20200;-64
2021/01/12 00:48:39;;;;;;;12.27;6.57;;;7.00;95.80;;;;;;4316452;33;20161;-63
2021/01/12 00:51:05;;;;;;;12.80;7.90;;;7.00;95.80;;;;;;4316400;33;20227;-63
2021/01/12 00:53:31;;;;;;;14.33;6.93;;;7.00;95.90;;;;;;4317907;33;20602;-62
2021/01/12 00:55:58;;;;;;;13.00;6.73;;;7.00;95.80;;;;;;4314220;33;20178;-62
2021/01/12 00:58:24;;;;;;;15.13;6.30;;;7.00;95.80;;;;;;4317985;33;20201;-63
2021/01/12 01:00:51;;;;;;;16.50;7.57;;;7.00;95.90;;;;;;4311173;33;20228;-62
2021/01/12 01:03:19;;;;;;;11.60;6.67;;;7.00;95.90;;;;;;4313052;33;20200;-63
2021/01/12 01:05:47;;;;;;;15.90;7.57;;;7.10;95.90;;;;;;4316823;33;20249;-62
2021/01/12 01:08:13;;;;;;;16.20;7.10;;;7.10;95.90;;;;;;4315472;33;20296;-63
2021/01/12 01:10:39;;;;;;;15.40;7.23;;;7.20;95.90;;;;;;4317929;33;20499;-61
2021/01/12 01:13:06;;;;;;;13.67;6.80;;;7.10;95.80;;;;;;4316013;33;20185;-65
2021/01/12 01:15:34;;;;;;;14.20;6.20;;;7.10;95.80;;;;;;4316903;33;20225;-63
2021/01/12 01:18:01;;;;;;;16.43;7.40;;;7.10;95.80;;;;;;4315857;33;20165;-62
2021/01/12 01:20:30;;;;;;;13.60;7.47;;;7.10;95.80;;;;;;4327777;33;20236;-63
2021/01/12 01:22:57;;;;;;;13.60;7.37;;;7.10;95.80;;;;;;4316134;33;20204;-62
2021/01/12 01:25:23;;;;;;;18.90;7.50;;;7.10;95.80;;;;;;4317115;33;20176;-62
2021/01/12 01:27:52;;;;;;;19.60;9.00;;;7.10;95.80;;;;;;4312572;33;20650;-62
2021/01/12 01:30:21;;;;;;;15.73;7.37;;;7.10;95.80;;;;;;4316543;33;20157;-62
2021/01/12 01:32:47;;;;;;;20.33;9.10;;;7.10;95.90;;;;;;4316539;33;20259;-62
2021/01/12 01:35:15;;;;;;;18.47;9.13;;;7.10;95.90;;;;;;4316899;33;20709;-62
2021/01/12 01:37:44;;;;;;;17.80;8.20;;;7.10;95.80;;;;;;4315758;33;20213;-64
2021/01/12 01:40:14;;;;;;;24.67;9.73;;;7.20;95.80;;;;;;4316581;33;20217;-63
2021/01/12 01:42:40;;;;;;;20.50;9.20;;;7.10;95.80;;;;;;4315654;33;20209;-61
2021/01/12 01:45:13;;;;;;;23.57;10.07;;;7.10;95.90;;;;;;4305562;33;20618;-63
2021/01/12 01:47:43;;;;;;;27.47;11.73;;;7.10;95.90;;;;;;4304889;33;20221;-62
2021/01/12 01:50:12;;;;;;;23.43;10.37;;;7.10;96.00;;;;;;4307628;33;20150;-63
2021/01/12 01:52:40;;;;;;;28.47;11.10;;;7.20;96.00;;;;;;4309237;33;20199;-62
2021/01/12 01:55:08;;;;;;;23.23;11.30;;;7.20;96.00;;;;;;4315486;33;20606;-62
2021/01/12 01:57:34;;;;;;;21.83;9.57;;;7.20;96.00;;;;;;4315593;33;20188;-61
2021/01/12 02:00:03;;;;;;;26.40;11.33;;;7.20;96.00;;;;;;4309619;33;21094;-64
2021/01/12 02:02:34;;;;;;;35.47;12.63;;;7.20;96.10;;;;;;4307464;33;20178;-64
2021/01/12 02:05:03;;;;;;;21.07;11.07;;;7.20;96.20;;;;;;4316672;33;20154;-64
2021/01/12 02:07:31;;;;;;;33.67;12.33;;;7.20;96.30;;;;;;4315774;33;20233;-64
2021/01/12 02:10:01;;;;;;;38.23;14.10;;;7.20;96.30;;;;;;4315961;33;20252;-64
2021/01/12 02:12:36;;;;;;;21.77;12.13;;;7.20;96.40;;;;;;4316209;33;20217;-65
2021/01/12 02:15:03;;;;;;;18.33;10.67;;;7.20;96.40;;;;;;4312387;33;20229;-64
2021/01/12 02:17:31;;;;;;;26.37;12.27;;;7.20;96.40;;;;;;4307307;33;20173;-64
2021/01/12 02:20:00;;;;;;;24.23;12.20;;;7.30;96.40;;;;;;4315906;33;20236;-64
2021/01/12 02:22:27;;;;;;;21.40;12.70;;;7.30;96.40;;;;;;4316388;33;20185;-64
2021/01/12 02:24:56;;;;;;;24.60;12.70;;;7.30;96.50;;;;;;4315904;33;20634;-64
2021/01/12 02:27:25;;;;;;;29.90;14.97;;;7.30;96.50;;;;;;4307098;33;20209;-63
2021/01/12 02:29:52;;;;;;;21.40;13.27;;;7.30;96.50;;;;;;4313264;33;20213;-64
2021/01/12 02:32:19;;;;;;;27.83;15.27;;;7.30;96.50;;;;;;4315464;33;20299;-62
2021/01/12 02:34:46;;;;;;;33.40;14.90;;;7.30;96.50;;;;;;4315731;33;20211;-63
2021/01/12 02:37:18;;;;;;;33.30;14.27;;;7.40;96.50;;;;;;4307659;33;20173;-63
2021/01/12 02:39:55;;;;;;;25.10;13.57;;;7.40;96.50;;;;;;4314947;33;20181;-63
2021/01/12 02:42:22;;;;;;;31.90;16.30;;;7.40;96.50;;;;;;4316154;33;20221;-65
2021/01/12 02:44:53;;;;;;;32.73;15.17;;;7.40;96.50;;;;;;4314948;33;20177;-61
2021/01/12 02:47:21;;;;;;;22.73;13.00;;;7.40;96.50;;;;;;4314547;33;20176;-62
2021/01/12 02:49:50;;;;;;;27.57;12.97;;;7.40;96.50;;;;;;4314042;33;20605;-63
2021/01/12 02:52:16;;;;;;;31.43;14.93;;;7.40;96.50;;;;;;4314948;33;20157;-63
2021/01/12 02:54:42;;;;;;;29.60;14.57;;;7.40;96.50;;;;;;4314602;33;20265;-62
2021/01/12 02:57:11;;;;;;;23.90;13.37;;;7.40;96.50;;;;;;4315422;33;20197;-63
2021/01/12 02:59:40;;;;;;;26.70;14.90;;;7.40;96.60;;;;;;4314337;33;20154;-62
2021/01/12 03:02:07;;;;;;;25.97;13.60;;;7.50;96.60;;;;;;4314241;33;20226;-62
2021/01/12 03:04:34;;;;;;;29.00;14.43;;;7.50;96.60;;;;;;4315423;33;20210;-63
2021/01/12 03:07:06;;;;;;;22.30;12.67;;;7.50;96.60;;;;;;4314388;33;20212;-64
2021/01/12 03:09:32;;;;;;;27.53;14.93;;;7.50;96.70;;;;;;4306735;33;20181;-62
2021/01/12 03:22:06;;;;;;;19.03;12.00;;;7.60;96.70;;;;;;4305568;33;20516;-64
2021/01/12 03:24:35;;;;;;;18.53;12.10;;;7.60;96.70;;;;;;4311063;33;20665;-64
2021/01/12 03:27:02;;;;;;;25.90;12.50;;;7.60;96.80;;;;;;4301983;33;20534;-62
2021/01/12 03:29:31;;;;;;;21.40;12.40;;;7.60;96.80;;;;;;4301938;33;20224;-63
2021/01/12 03:31:57;;;;;;;20.17;10.80;;;7.70;96.80;;;;;;4314684;33;20165;-67
2021/01/12 03:34:25;;;;;;;23.73;12.83;;;7.70;96.80;;;;;;4314369;33;20707;-62
2021/01/12 03:36:52;;;;;;;20.13;11.27;;;7.70;96.80;;;;;;4314262;33;20170;-63
2021/01/12 03:39:22;;;;;;;22.47;11.50;;;7.70;96.80;;;;;;4314091;33;20162;-63
2021/01/12 03:41:58;;;;;;;17.80;9.93;;;7.70;96.80;;;;;;4314857;33;20165;-66
2021/01/12 03:44:37;;;;;;;21.10;11.57;;;7.60;96.80;;;;;;4319342;33;20179;-64
2021/01/12 03:47:13;;;;;;;20.70;10.23;;;7.80;96.80;;;;;;4317783;33;20225;-63
2021/01/12 03:49:39;;;;;;;20.37;10.30;;;7.80;96.80;;;;;;4308395;33;20169;-64
2021/01/12 03:52:06;;;;;;;16.47;11.10;;;7.70;96.80;;;;;;4315407;33;20153;-63
2021/01/12 03:54:34;;;;;;;19.53;11.97;;;7.70;96.80;;;;;;4317449;33;20178;-61
2021/01/12 03:57:01;;;;;;;26.27;11.57;;;7.80;96.90;;;;;;4317506;33;20221;-62
2021/01/12 03:59:27;;;;;;;21.97;10.83;;;7.80;96.90;;;;;;4313853;33;20473;-64
2021/01/12 04:01:54;;;;;;;17.57;10.30;;;7.80;96.80;;;;;;4308855;33;20208;-64
2021/01/12 04:04:20;;;;;;;18.17;9.87;;;7.80;96.80;;;;;;4308426;33;20170;-62
2021/01/12 04:06:46;;;;;;;26.57;11.67;;;7.80;96.80;;;;;;4317311;33;20459;-64
2021/01/12 04:09:13;;;;;;;25.57;11.30;;;7.80;96.80;;;;;;4312670;33;20240;-61
2021/01/12 04:11:55;;;;;;;12.87;8.57;;;7.80;96.90;;;;;;4317097;33;20515;-61
2021/01/12 04:14:21;;;;;;;16.93;10.70;;;7.90;96.90;;;;;;4315887;33;20185;-62
2021/01/12 04:16:49;;;;;;;30.40;11.50;;;7.90;96.90;;;;;;4309151;33;20636;-64
2021/01/12 04:19:16;;;;;;;19.63;11.50;;;7.90;96.80;;;;;;4316295;33;20434;-61
2021/01/12 04:21:42;;;;;;;22.83;11.50;;;7.80;96.80;;;;;;4317626;33;20200;-64
2021/01/12 04:24:09;;;;;;;15.97;9.27;;;7.90;96.80;;;;;;4316770;33;20165;-65
2021/01/12 04:26:35;;;;;;;16.23;9.40;;;7.90;96.80;;;;;;4317416;33;20219;-63
2021/01/12 04:29:02;;;;;;;19.80;9.67;;;8.00;96.80;;;;;;4316646;33;20623;-63
2021/01/12 04:31:34;;;;;;;22.80;11.20;;;7.90;96.80;;;;;;4317370;33;20200;-63
2021/01/12 04:34:06;;;;;;;19.30;8.57;;;7.90;96.80;;;;;;4316767;33;20180;-62
2021/01/12 04:36:32;;;;;;;21.90;9.77;;;7.90;96.80;;;;;;4316883;33;20184;-64
2021/01/12 04:38:59;;;;;;;20.83;9.87;;;8.00;96.80;;;;;;4319202;33;20618;-63
2021/01/12 04:41:28;;;;;;;17.10;8.80;;;7.90;96.80;;;;;;4318234;33;20635;-63
2021/01/12 04:43:57;;;;;;;17.90;9.63;;;8.00;96.80;;;;;;4318065;33;20184;-63
2021/01/12 04:46:34;;;;;;;18.70;9.47;;;8.00;96.80;;;;;;4318073;33;20181;-65
2021/01/12 04:49:01;;;;;;;26.87;10.60;;;8.00;96.80;;;;;;4311943;33;20211;-63
2021/01/12 04:51:37;;;;;;;19.23;10.07;;;8.00;96.80;;;;;;4316334;33;20200;-64
2021/01/12 04:54:04;;;;;;;21.27;9.43;;;8.00;96.80;;;;;;4318330;33;20158;-65
2021/01/12 04:56:35;;;;;;;17.63;8.60;;;8.00;96.80;;;;;;4315258;33;20235;-62
2021/01/12 04:59:12;;;;;;;23.53;9.33;;;8.10;96.80;;;;;;4304020;33;20240;-65
2021/01/12 05:01:40;;;;;;;19.53;9.17;;;8.00;96.80;;;;;;4306273;33;20207;-63
2021/01/12 05:04:07;;;;;;;29.23;10.23;;;8.00;97.10;;;;;;4316338;33;20221;-65
2021/01/12 05:06:33;;;;;;;23.80;8.63;;;8.10;96.80;;;;;;4315212;33;20232;-64
2021/01/12 05:09:01;;;;;;;15.00;8.50;;;8.10;96.80;;;;;;4316409;33;20620;-63
2021/01/12 05:11:30;;;;;;;19.23;7.87;;;8.00;96.80;;;;;;4316291;33;20183;-63
2021/01/12 05:14:03;;;;;;;17.20;6.43;;;8.10;97.20;;;;;;4315926;33;20228;-63
2021/01/12 05:16:29;;;;;;;18.13;8.20;;;8.10;96.90;;;;;;4303146;33;20209;-63
2021/01/12 05:18:59;;;;;;;17.60;7.00;;;8.20;96.80;;;;;;4316529;33;20471;-63
2021/01/12 05:21:26;;;;;;;19.07;6.57;;;8.10;96.80;;;;;;4315464;33;20208;-64
2021/01/12 05:24:03;;;;;;;20.77;5.97;;;8.20;96.80;;;;;;4316015;33;20177;-63
2021/01/12 05:26:34;;;;;;;10.43;3.87;;;8.10;96.70;;;;;;4315748;33;20212;-63
2021/01/12 05:29:01;;;;;;;9.77;3.80;;;8.20;96.50;;;;;;4316631;33;20161;-63
2021/01/12 05:31:37;;;;;;;16.27;4.27;;;8.10;96.50;;;;;;4317281;33;20594;-63
2021/01/12 05:34:07;;;;;;;12.80;4.10;;;8.10;96.50;;;;;;4312918;33;20216;-64
2021/01/12 05:36:51;;;;;;;12.27;4.30;;;8.10;96.50;;;;;;4317155;33;20200;-64
2021/01/12 05:39:32;;;;;;;13.40;4.03;;;8.10;96.50;;;;;;4314645;33;20173;-65
2021/01/12 05:42:08;;;;;;;16.80;3.80;;;8.10;96.50;;;;;;4311590;33;20180;-62
2021/01/12 05:44:39;;;;;;;20.77;5.13;;;8.10;96.40;;;;;;4314431;33;20506;-65
2021/01/12 05:47:06;;;;;;;7.70;3.33;;;8.10;96.40;;;;;;4314647;33;20499;-62
2021/01/12 05:49:33;;;;;;;13.47;4.30;;;8.10;96.40;;;;;;4314057;33;20158;-63
2021/01/12 05:52:09;;;;;;;15.53;3.60;;;8.00;96.40;;;;;;4316418;33;20566;-62
2021/01/12 05:54:36;;;;;;;11.50;3.33;;;8.00;96.30;;;;;;4316163;33;20438;-63
2021/01/12 05:57:16;;;;;;;11.13;3.00;;;8.00;95.90;;;;;;4315296;33;20170;-62
2021/01/12 05:59:58;;;;;;;12.10;2.77;;;7.90;95.90;;;;;;4311371;33;20187;-64
2021/01/12 06:02:32;;;;;;;14.03;3.23;;;7.90;95.90;;;;;;4310156;33;20193;-61
2021/01/12 06:05:03;;;;;;;18.13;3.30;;;7.90;95.90;;;;;;4311240;33;20188;-64
2021/01/12 06:07:46;;;;;;;10.63;2.90;;;7.80;95.90;;;;;;4316777;33;20177;-64
2021/01/12 06:10:21;;;;;;;10.17;2.60;;;7.80;95.90;;;;;;4315795;33;20166;-63
2021/01/12 06:12:58;;;;;;;10.67;2.90;;;7.80;95.80;;;;;;4313549;33;20231;-62
2021/01/12 06:15:30;;;;;;;17.47;3.03;;;7.80;95.80;;;;;;4313931;33;20171;-62
2021/01/12 06:18:08;;;;;;;15.83;2.87;;;7.70;95.80;;;;;;4314686;33;20288;-63
2021/01/12 06:20:45;;;;;;;12.47;2.30;;;7.70;95.90;;;;;;4316380;33;20252;-66
2021/01/12 06:23:23;;;;;;;17.23;3.63;;;7.80;95.90;;;;;;4313910;33;20161;-64
2021/01/12 06:25:50;;;;;;;13.37;3.13;;;7.80;95.80;;;;;;4313881;33;20180;-64
2021/01/12 06:28:16;;;;;;;15.33;3.20;;;7.70;95.70;;;;;;4314643;33;20177;-64
2021/01/12 06:30:46;;;;;;;13.27;2.83;;;7.70;95.80;;;;;;4313513;33;20232;-62
2021/01/12 06:33:16;;;;;;;8.03;2.50;;;7.70;95.70;;;;;;4314598;33;20180;-64
2021/01/12 06:35:51;;;;;;;6.27;2.20;;;7.70;95.60;;;;;;4314350;33;20255;-67
2021/01/12 06:38:22;;;;;;;13.77;2.80;;;7.60;95.50;;;;;;4312941;33;20197;-63
2021/01/12 06:40:53;;;;;;;11.27;2.73;;;7.60;95.50;;;;;;4314111;33;20244;-62
2021/01/12 06:43:24;;;;;;;11.67;2.47;;;7.50;95.70;;;;;;4312268;33;20161;-63
2021/01/12 06:45:52;;;;;;;5.53;1.70;;;7.60;95.40;;;;;;4312121;33;20508;-63
2021/01/12 06:48:22;;;;;;;5.50;1.80;;;7.50;95.40;;;;;;4312961;33;20153;-64
2021/01/12 06:50:49;;;;;;;13.80;2.40;;;7.50;95.40;;;;;;4313977;33;20620;-62
2021/01/12 06:53:17;;;;;;;8.23;2.27;;;7.50;95.50;;;;;;4310979;33;20181;-63
2021/01/12 06:55:44;;;;;;;10.60;3.10;;;7.50;95.30;;;;;;4310730;33;20247;-63
2021/01/12 06:58:17;;;;;;;8.73;2.70;;;7.40;95.30;;;;;;4312378;33;20150;-62
2021/01/12 07:00:58;;;;;;;9.63;2.90;;;7.40;95.30;;;;;;4313024;33;20225;-62
2021/01/12 07:03:33;;;;;;;6.10;2.00;;;7.40;95.30;;;;;;4314905;33;20208;-63
2021/01/12 07:06:09;;;;;;;6.67;2.20;;;7.40;95.30;;;;;;4312647;33;20184;-63
2021/01/12 07:08:52;;;;;;;6.73;2.83;;;7.40;95.30;;;;;;4309155;33;20304;-63
2021/01/12 07:11:21;;;;;;;6.07;2.53;;;7.30;95.40;;;;;;4313136;33;20169;-63
2021/01/12 07:13:57;;;;;;;8.70;2.17;;;7.40;95.40;;;;;;4311579;33;20279;-64
2021/01/12 07:16:25;;;;;;;9.57;2.03;;;7.40;95.40;;;;;;4314246;33;20162;-62
2021/01/12 07:18:58;;;;;;;9.00;1.67;;;7.40;95.30;;;;;;4312223;33;20204;-65
2021/01/12 07:21:34;;;;;;;7.93;1.73;;;7.40;95.10;;;;;;4314417;33;20590;-64
2021/01/12 07:24:05;;;;;;;7.90;1.50;;;7.40;95.10;;;;;;4313004;33;20224;-63
2021/01/12 07:26:34;;;;;;;6.17;1.43;;;7.40;95.10;;;;;;4314162;33;20177;-64
2021/01/12 07:29:15;;;;;;;8.03;1.97;;;7.30;95.00;;;;;;4314548;33;20538;-66
2021/01/12 07:31:47;;;;;;;7.43;1.50;;;7.30;95.00;;;;;;4312070;33;20154;-66
2021/01/12 07:34:16;;;;;;;6.47;1.63;;;7.20;95.00;;;;;;4315278;33;20170;-63
2021/01/12 07:36:47;;;;;;;7.33;1.40;;;7.20;95.10;;;;;;4314260;33;20629;-64
2021/01/12 07:39:19;;;;;;;4.00;2.00;;;7.40;95.10;;;;;;4313956;33;20657;-67
2021/01/12 07:41:52;;;;;;;15.30;1.90;;;7.20;95.10;;;;;;4312728;33;20229;-64
2021/01/12 07:44:20;;;;;;;10.50;2.40;;;7.20;95.30;;;;;;4304705;33;20213;-65
2021/01/12 07:46:54;;;;;;;13.77;2.90;;;7.20;95.40;;;;;;4310693;33;20692;-64
2021/01/12 07:49:26;;;;;;;16.87;3.83;;;7.20;95.40;;;;;;4314454;33;20209;-65
2021/01/12 07:51:55;;;;;;;8.97;3.33;;;7.20;95.50;;;;;;4306464;33;20154;-67
2021/01/12 07:54:25;;;;;;;5.40;3.43;;;7.20;95.50;;;;;;4313894;33;20220;-65
2021/01/12 07:57:00;;;;;;;12.27;4.10;;;7.20;95.50;;;;;;4312905;33;20200;-65
2021/01/12 07:59:26;;;;;;;9.10;3.80;;;7.10;95.50;;;;;;4314956;33;20543;-65
2021/01/12 08:01:57;;;;;;;8.13;3.60;;;7.10;95.50;;;;;;4315043;33;20174;-64
2021/01/12 08:04:37;;;;;;;6.23;3.20;;;7.00;95.30;;;;;;4306987;33;20224;-65
2021/01/12 08:07:28;;;;;;;7.00;3.70;;;7.00;95.10;;;;;;4311698;33;20954;-64
2021/01/12 08:16:52;;;;;;;10.30;5.00;;;6.90;95.50;;;;;;4309298;33;20679;-64
2021/01/12 08:19:28;;;;;;;16.40;5.40;;;6.90;95.80;;;;;;4307425;33;20208;-65
2021/01/12 08:22:09;;;;;;;11.00;5.17;;;7.00;95.50;;;;;;4309624;33;20153;-64
2021/01/12 08:25:06;;;;;;;12.33;6.33;;;6.90;95.40;;;;;;4310017;33;20189;-65
2021/01/12 08:27:38;;;;;;;8.43;4.77;;;6.80;95.00;;;;;;4312816;33;20582;-68
2021/01/12 08:30:34;;;;;;;9.47;2.67;;;6.80;94.90;;;;;;4314653;33;20173;-65
2021/01/12 08:33:12;;;;;;;6.10;2.60;;;6.50;94.10;;;;;;4279039;33;20171;-67
2021/01/12 08:35:46;;;;;;;6.47;2.33;;;6.50;94.70;;;;;;4273146;33;20253;-65
2021/01/12 08:38:28;;;;;;;4.20;2.27;;;6.50;94.50;;;;;;4276058;33;20178;-67
2021/01/12 08:41:05;;;;;;;4.77;2.00;;;6.40;94.30;;;;;;4271869;33;20188;-64
2021/01/12 08:43:40;;;;;;;4.63;2.47;;;6.40;94.50;;;;;;4279396;33;20546;-65
2021/01/12 08:46:20;;;;;;;8.33;2.17;;;6.50;94.30;;;;;;4281213;33;20590;-65
2021/01/12 08:48:57;;;;;;;7.47;2.27;;;6.50;94.20;;;;;;4274894;33;20166;-65
2021/01/12 08:51:31;;;;;;;6.07;2.10;;;6.40;94.40;;;;;;4269228;33;20170;-65
2021/01/12 08:54:03;;;;;;;9.77;3.47;;;6.40;94.10;;;;;;4278873;33;20166;-70
2021/01/12 08:56:33;;;;;;;5.53;2.60;;;6.50;94.30;;;;;;4267907;33;20556;-67
2021/01/12 08:59:06;;;;;;;7.20;2.47;;;6.50;94.00;;;;;;4270846;33;20185;-65
2021/01/12 09:01:38;;;;;;;6.03;2.40;;;6.50;94.10;;;;;;4270039;33;20286;-65
2021/01/12 09:04:10;;;;;;;7.57;2.57;;;6.60;94.10;;;;;;4273900;33;20639;-65
2021/01/12 09:06:47;;;;;;;8.80;2.33;;;6.60;94.00;;;;;;4268745;33;20210;-65
2021/01/12 09:09:15;;;;;;;9.17;2.20;;;6.60;93.80;;;;;;4283237;33;20153;-69
2021/01/12 09:11:58;;;;;;;6.63;2.00;;;6.70;93.90;;;;;;4313028;33;20570;-64
2021/01/12 09:14:24;;;;;;;4.53;1.40;;;6.70;93.70;;;;;;4311568;33;20169;-65
2021/01/12 09:16:56;;;;;;;4.70;1.80;;;6.70;93.70;;;;;;4311928;33;20213;-69
2021/01/12 09:19:22;;;;;;;6.80;1.60;;;6.80;93.90;;;;;;4313023;33;20209;-65
2021/01/12 09:21:52;;;;;;;8.80;1.50;;;6.70;93.40;;;;;;4312554;33;20185;-65
2021/01/12 09:24:26;;;;;;;12.67;1.60;;;6.70;93.00;;;;;;4314499;33;20180;-65
2021/01/12 09:27:03;;;;;;;6.53;1.60;;;6.80;93.30;;;;;;4316079;33;20184;-65
2021/01/12 09:29:43;;;;;;;8.27;1.37;;;6.80;93.00;;;;;;4314443;33;20160;-67
2021/01/12 09:32:40;;;;;;;9.47;1.60;;;6.80;92.80;;;;;;4315013;33;20161;-65
2021/01/12 09:38:21;;;;;;;8.77;1.63;;;6.50;93.40;;;;;;4258507;33;20622;-67
2021/01/12 09:40:49;;;;;;;6.43;1.63;;;6.50;93.30;;;;;;4244365;33;20167;-69
2021/01/12 09:43:29;;;;;;;16.53;2.23;;;6.50;93.50;;;;;;4247872;33;20186;-66
2021/01/12 09:46:09;;;;;;;8.40;1.90;;;6.60;93.50;;;;;;4242948;33;20259;-65
2021/01/12 09:48:36;;;;;;;9.07;2.07;;;6.60;93.10;;;;;;4248915;33;20250;-65
2021/01/12 09:51:14;;;;;;;12.43;2.27;;;6.60;93.30;;;;;;4248218;33;21850;-68
2021/01/12 09:53:51;;;;;;;11.87;2.53;;;6.60;93.30;;;;;;4246679;33;20250;-65
2021/01/12 09:56:30;;;;;;;11.90;2.13;;;6.70;93.10;;;;;;4242133;33;20210;-68
2021/01/12 09:59:00;;;;;;;15.97;2.57;;;6.50;92.90;;;;;;4252095;33;20229;-65
2021/01/12 10:01:30;;;;;;;9.40;2.13;;;6.40;93.40;;;;;;4247767;33;20241;-65
2021/01/12 10:04:03;;;;;;;8.73;2.07;;;6.30;93.40;;;;;;4241244;33;20291;-65
2021/01/12 10:06:29;;;;;;;7.47;1.73;;;6.30;93.80;;;;;;4240426;33;20223;-65
2021/01/12 10:09:03;;;;;;;6.53;2.03;;;6.30;93.70;;;;;;4245553;33;20171;-64
2021/01/12 10:11:39;;;;;;;5.23;1.37;;;6.50;93.40;;;;;;4255656;33;20705;-66
2021/01/12 10:14:20;;;;;;;5.40;1.10;;;6.50;93.00;;;;;;4266403;33;20289;-66
2021/01/12 10:16:47;;;;;;;7.70;1.03;;;6.30;91.60;;;;;;4266922;33;20206;-65
2021/01/12 10:19:24;;;;;;;4.80;0.90;;;6.20;92.60;;;;;;4292550;33;20162;-65
2021/01/12 10:21:52;;;;;;;3.60;1.10;;;6.20;92.80;;;;;;4292649;33;20356;-64
2021/01/12 10:24:39;;;;;;;8.93;1.47;;;6.10;92.70;;;;;;4298682;33;20158;-65
2021/01/12 10:27:19;;;;;;;4.63;0.93;;;6.10;92.50;;;;;;4295782;33;20166;-65
2021/01/12 10:29:54;;;;;;;6.10;1.37;;;6.10;92.80;;;;;;3952489;33;11555761;-66
2021/01/12 10:32:25;;;;;;;9.30;1.80;;;6.10;92.00;;;;;;4294462;33;20208;-65
2021/01/12 10:35:13;;;;;;;6.90;2.13;;;5.90;92.60;;;;;;4299030;33;20184;-64
2021/01/12 10:37:46;;;;;;;4.43;1.27;;;5.80;92.70;;;;;;4311611;33;20216;-67
2021/01/12 10:40:29;;;;;;;4.87;1.50;;;5.70;93.30;;;;;;4313860;33;20543;-64
2021/01/12 10:42:57;;;;;;;5.50;1.47;;;5.60;93.70;;;;;;4301205;33;20150;-65
2021/01/12 10:48:16;;;;;;;6.40;1.23;;;5.60;93.60;;;;;;4277317;33;20242;-66
2021/01/12 10:50:48;;;;;;;6.57;1.40;;;5.50;93.70;;;;;;4280547;33;20162;-65
2021/01/12 10:53:16;;;;;;;13.10;2.30;;;5.60;93.50;;;;;;4284167;33;20243;-66
2021/01/12 10:55:42;;;;;;;7.73;1.13;;;5.70;92.40;;;;;;4278108;33;20173;-66
2021/01/12 10:58:10;;;;;;;7.67;1.20;;;5.70;92.30;;;;;;4273010;33;20170;-66
2021/01/12 11:00:38;;;;;;;4.83;1.20;;;5.90;92.00;;;;;;4277499;33;20171;-65
2021/01/12 11:03:08;;;;;;;11.60;2.37;;;6.10;92.40;;;;;;4282167;33;20192;-66
2021/01/12 11:05:36;;;;;;;8.97;1.63;;;6.40;92.10;;;;;;4280664;33;20590;-65
2021/01/12 11:08:03;;;;;;;5.13;1.37;;;6.40;88.90;;;;;;4282906;33;20234;-66
2021/01/12 11:10:34;;;;;;;6.73;1.37;;;6.30;88.20;;;;;;4277579;33;20236;-66
2021/01/12 11:13:02;;;;;;;9.57;1.77;;;6.10;90.20;;;;;;4279025;33;20162;-65
2021/01/12 11:15:42;;;;;;;10.07;2.03;;;5.90;87.40;;;;;;4274470;33;20226;-66
2021/01/12 11:18:11;;;;;;;12.07;1.40;;;5.70;89.20;;;;;;4281363;33;20195;-65
2021/01/12 11:20:50;;;;;;;13.37;1.57;;;5.60;90.30;;;;;;4311635;33;20179;-65
2021/01/12 11:23:18;;;;;;;9.33;1.73;;;5.70;88.40;;;;;;4318416;33;20208;-68
2021/01/12 11:25:52;;;;;;;10.37;1.67;;;5.70;88.40;;;;;;4307636;33;20356;-66
2021/01/12 11:28:33;;;;;;;11.73;1.70;;;5.70;88.00;;;;;;4314998;33;20154;-68
2021/01/12 11:31:15;;;;;;;5.80;1.43;;;5.60;87.50;;;;;;4308058;33;20188;-66
2021/01/12 11:33:55;;;;;;;7.57;1.30;;;5.60;86.20;;;;;;4304970;33;20178;-66
2021/01/12 11:36:39;;;;;;;8.07;1.70;;;5.70;80.80;;;;;;4305691;33;20299;-65
2021/01/12 11:39:15;;;;;;;10.17;1.70;;;5.60;80.80;;;;;;4309527;33;20215;-68
2021/01/12 11:42:06;;;;;;;4.23;1.30;;;5.50;82.30;;;;;;4313835;33;20180;-67
2021/01/12 11:44:35;;;;;;;5.90;1.50;;;5.40;80.70;;;;;;4312621;33;20486;-65
2021/01/12 11:47:06;;;;;;;8.90;1.47;;;5.60;77.80;;;;;;4312755;33;20222;-65
2021/01/12 11:49:33;;;;;;;11.00;1.70;;;5.50;77.30;;;;;;4308267;33;20161;-65
2021/01/12 11:52:07;;;;;;;7.90;1.13;;;5.50;75.90;;;;;;4312797;33;20180;-67
2021/01/12 11:54:44;;;;;;;5.30;1.73;;;5.40;78.30;;;;;;4314099;33;20459;-66
2021/01/12 11:57:38;;;;;;;5.87;1.20;;;5.30;78.50;;;;;;4312984;33;20172;-66
2021/01/12 12:00:18;;;;;;;8.23;1.63;;;5.10;81.60;;;;;;4311897;33;20154;-66
2021/01/12 12:05:48;;;;;;;8.87;1.30;;;5.00;79.70;;;;;;4310208;33;20588;-66
2021/01/12 12:08:34;;;;;;;6.47;1.30;;;5.10;79.60;;;;;;4308479;33;20230;-67
2021/01/12 12:11:22;;;;;;;4.60;1.40;;;5.10;78.80;;;;;;4321848;33;20501;-67
2021/01/12 12:14:08;;;;;;;8.63;1.57;;;5.00;79.30;;;;;;4316808;33;20181;-66
2021/01/12 12:17:11;;;;;;;5.40;1.40;;;4.90;79.40;;;;;;4315188;33;20204;-68
2021/01/12 12:20:19;;;;;;;13.10;1.50;;;5.10;79.80;;;;;;4284550;33;20483;-65
2021/01/12 12:26:26;;;;;;;7.93;1.80;;;5.10;77.30;;;;;;4224534;33;20227;-65
2021/01/12 12:29:18;;;;;;;3.60;1.17;;;5.20;78.30;;;;;;4227274;33;20368;-66
2021/01/12 12:32:22;;;;;;;6.17;1.57;;;5.40;78.00;;;;;;4189619;34;20270;-66
2021/01/12 12:35:10;;;;;;;;;;;;;;;;;;;;;
2021/01/12 12:37:44;;;;;;;7.27;1.17;;;5.60;75.90;;;;;;4195374;34;20345;-66
2021/01/12 12:43:11;;;;;;;10.07;1.43;;;5.70;74.90;;;;;;4199511;34;20192;-66
2021/01/12 12:45:43;;;;;;;5.77;1.73;;;5.50;77.70;;;;;;4200876;34;20164;-66
2021/01/12 12:48:18;;;;;;;6.57;1.40;;;5.60;74.30;;;;;;4224986;33;20160;-66
2021/01/12 12:50:45;;;;;;;7.30;1.23;;;5.60;72.80;;;;;;4225180;33;20434;-66
2021/01/12 12:53:15;;;;;;;7.60;1.07;;;5.40;76.30;;;;;;4226009;34;20729;-65
2021/01/12 12:55:53;;;;;;;12.20;2.40;;;5.40;73.60;;;;;;4261214;33;20158;-65
2021/01/12 12:58:29;;;;;;;7.80;1.40;;;5.40;74.20;;;;;;4325107;33;20154;-65
2021/01/12 13:00:58;;;;;;;7.97;1.80;;;5.40;74.90;;;;;;4326523;33;20163;-66
2021/01/12 13:03:28;;;;;;;9.73;1.30;;;5.40;76.80;;;;;;4326563;33;20172;-67
2021/01/12 13:06:10;;;;;;;5.63;1.63;;;5.60;73.90;;;;;;4325811;33;20165;-66
2021/01/12 13:08:46;;;;;;;13.40;1.50;;;6.10;73.00;;;;;;4323494;33;20244;-66
2021/01/12 13:11:18;;;;;;;11.73;1.63;;;6.30;73.70;;;;;;4326084;33;20226;-65
2021/01/12 13:13:50;;;;;;;5.83;1.53;;;6.50;70.50;;;;;;4326827;33;20150;-66
2021/01/12 13:16:17;;;;;;;9.00;1.70;;;6.50;71.20;;;;;;4323634;33;21165;-66
2021/01/12 13:19:12;;;;;;;9.57;3.30;;;6.30;72.10;;;;;;4325165;33;20505;-66
2021/01/12 13:24:46;;;;;;;8.50;1.50;;;5.90;76.40;;;;;;4318926;33;20188;-66
2021/01/12 13:30:09;;;;;;;8.43;2.07;;;5.60;78.50;;;;;;4322653;33;20228;-67
2021/01/12 13:33:13;;;;;;;7.47;1.40;;;5.70;77.20;;;;;;4325014;33;20267;-68
2021/01/12 13:35:55;;;;;;;7.23;1.67;;;5.70;77.20;;;;;;4325158;33;20653;-67
2021/01/12 13:39:20;;;;;;;;;;;;;;;;;;;;;
2021/01/12 13:42:06;;;;;;;10.53;1.43;;;5.30;81.30;;;;;;4327795;33;20154;-67
2021/01/12 13:45:14;;;;;;;10.90;1.90;;;5.50;78.70;;;;;;4324743;33;20161;-66
2021/01/12 13:48:01;;;;;;;7.07;1.70;;;5.40;80.50;;;;;;4293371;33;20227;-67
2021/01/12 13:50:46;;;;;;;6.53;1.33;;;5.50;78.80;;;;;;4283935;33;20233;-66
2021/01/12 13:53:15;;;;;;;10.97;1.90;;;5.60;77.20;;;;;;4279984;33;20186;-69
2021/01/12 13:56:41;;;;;;;9.83;1.60;;;5.50;77.60;;;;;;4286734;33;20217;-68
2021/01/12 13:59:18;;;;;;;10.57;1.50;;;5.50;77.60;;;;;;4280429;33;20241;-65